Time;durP1;ratioP1;P1;durP2;ratioP2;P2;SDS_P1;SDS_P2;PMS_P1;PMS_P2;Temp;Humidity;BMP_temperature;BMP_pressure;BME280_temperature;BME280_humidity;BME280_pressure;Samples;Min_cycle;Max_cycle;Signal;HPM_P1;HPM_P2
2022/07/15 00:02:22;;;;;;;5.82;1.05;;;13.60;1.00;;;;;;5025338;28;20033;-79
2022/07/15 00:04:47;;;;;;;6.70;1.50;;;13.60;1.00;;;;;;5021765;28;20026;-79
2022/07/15 00:07:13;;;;;;;6.05;1.30;;;13.40;1.00;;;;;;5021918;28;20468;-79
2022/07/15 00:12:24;;;;;;;3.70;0.70;;;13.10;1.00;;;;;;5030114;28;20382;-80
2022/07/15 00:14:50;;;;;;;6.63;0.95;;;13.10;1.00;;;;;;5031932;28;20022;-79
2022/07/15 00:17:15;;;;;;;3.33;1.02;;;13.00;1.00;;;;;;5030539;28;20030;-79
2022/07/15 00:19:41;;;;;;;8.88;1.20;;;12.90;1.00;;;;;;5023133;28;20029;-80
2022/07/15 00:22:08;;;;;;;7.00;0.90;;;12.80;1.00;;;;;;5022152;28;20058;-79
2022/07/15 00:24:34;;;;;;;7.57;0.80;;;12.70;1.00;;;;;;5028143;28;20032;-79
2022/07/15 00:27:02;;;;;;;5.60;1.02;;;12.60;1.00;;;;;;5031074;28;20026;-79
2022/07/15 00:29:27;;;;;;;6.90;0.85;;;12.60;1.00;;;;;;5026851;28;20018;-79
2022/07/15 00:31:53;;;;;;;3.30;0.77;;;12.70;1.00;;;;;;5019108;28;20025;-79
2022/07/15 00:34:20;;;;;;;4.30;1.40;;;12.70;1.00;;;;;;5021427;28;20109;-79
2022/07/15 00:36:46;;;;;;;4.97;1.10;;;12.70;1.00;;;;;;5023331;28;20038;-79
2022/07/15 00:39:11;;;;;;;4.10;0.82;;;12.80;1.00;;;;;;5029141;28;20037;-79
2022/07/15 00:41:38;;;;;;;3.28;1.02;;;12.70;1.00;;;;;;5025723;28;20121;-79
2022/07/15 00:44:04;;;;;;;5.38;0.88;;;12.60;1.00;;;;;;5021514;28;20026;-79
2022/07/15 00:46:30;;;;;;;4.38;1.35;;;12.40;1.00;;;;;;5026999;28;20022;-79
2022/07/15 00:49:01;;;;;;;4.03;0.70;;;12.40;1.00;;;;;;5018024;28;20018;-79
2022/07/15 00:51:27;;;;;;;5.03;1.60;;;12.20;1.00;;;;;;5026343;28;20026;-79
2022/07/15 00:53:55;;;;;;;3.35;0.93;;;12.10;1.00;;;;;;5030484;28;20025;-79
2022/07/15 00:56:25;;;;;;;5.53;0.80;;;12.00;1.00;;;;;;5027109;28;20034;-80
2022/07/15 00:58:53;;;;;;;4.70;0.70;;;11.90;1.00;;;;;;5029171;28;20366;-79
2022/07/15 01:01:20;;;;;;;3.42;0.80;;;11.80;1.00;;;;;;5021623;28;20024;-79
2022/07/15 01:03:48;;;;;;;4.03;0.77;;;11.70;1.00;;;;;;5032903;28;20087;-79
2022/07/15 01:06:14;;;;;;;3.35;0.55;;;11.70;1.00;;;;;;5028953;28;20378;-80
2022/07/15 01:08:40;;;;;;;4.22;0.60;;;11.70;1.00;;;;;;5025920;28;20009;-80
2022/07/15 01:11:06;;;;;;;4.78;1.00;;;11.80;1.00;;;;;;5021040;28;20404;-78
2022/07/15 01:13:31;;;;;;;2.65;0.77;;;11.70;1.00;;;;;;5026318;28;20462;-79
2022/07/15 01:15:57;;;;;;;6.45;0.77;;;11.70;1.00;;;;;;5029726;28;20105;-79
2022/07/15 01:18:23;;;;;;;5.22;1.67;;;11.70;1.00;;;;;;5027992;28;20053;-80
2022/07/15 01:20:48;;;;;;;5.97;1.00;;;11.70;1.00;;;;;;5027478;28;20017;-79
2022/07/15 01:23:15;;;;;;;4.65;0.90;;;11.70;1.00;;;;;;5034341;28;20018;-80
2022/07/15 01:25:41;;;;;;;1.92;0.63;;;11.60;1.00;;;;;;5034531;28;20030;-79
2022/07/15 01:28:08;;;;;;;5.25;0.95;;;11.50;1.00;;;;;;5020610;28;20026;-79
2022/07/15 01:30:34;;;;;;;5.90;1.17;;;11.40;1.00;;;;;;5026346;28;20105;-79
2022/07/15 01:32:59;;;;;;;4.75;0.70;;;11.40;1.00;;;;;;5028544;28;20056;-79
2022/07/15 01:35:25;;;;;;;4.68;0.90;;;11.40;2.80;;;;;;5027932;28;20030;-79
2022/07/15 01:37:50;;;;;;;5.32;0.93;;;11.30;2.90;;;;;;5014358;28;20029;-79
2022/07/15 01:40:16;;;;;;;6.65;0.80;;;11.30;5.40;;;;;;5032107;28;20058;-79
2022/07/15 01:42:42;;;;;;;4.80;0.95;;;11.20;3.00;;;;;;5024574;28;20101;-80
2022/07/15 01:45:08;;;;;;;2.90;0.70;;;11.10;8.20;;;;;;5029016;28;20021;-79
2022/07/15 01:47:44;;;;;;;6.53;0.93;;;11.00;12.30;;;;;;5022767;28;20029;-78
2022/07/15 01:50:10;;;;;;;7.35;1.00;;;10.90;24.60;;;;;;5034179;28;20033;-79
2022/07/15 01:52:35;;;;;;;4.47;1.00;;;10.80;21.00;;;;;;5026915;28;20026;-79
2022/07/15 01:55:02;;;;;;;2.30;0.50;;;10.70;26.20;;;;;;5028356;28;20021;-79
2022/07/15 01:57:27;;;;;;;5.93;0.90;;;10.70;29.00;;;;;;5034957;28;20511;-80
2022/07/15 01:59:53;;;;;;;1.77;0.52;;;10.60;27.00;;;;;;5025256;28;20025;-80
2022/07/15 02:02:18;;;;;;;2.65;0.40;;;10.50;37.50;;;;;;5030607;28;20545;-80
2022/07/15 02:04:44;;;;;;;5.05;0.70;;;10.50;28.00;;;;;;5026132;28;20034;-79
2022/07/15 02:07:09;;;;;;;7.93;1.95;;;10.50;26.80;;;;;;5023185;28;20026;-80
2022/07/15 02:09:36;;;;;;;3.60;0.50;;;10.50;26.70;;;;;;5027157;28;20026;-79
2022/07/15 02:12:01;;;;;;;3.35;0.40;;;10.40;17.60;;;;;;5028459;28;20030;-79
2022/07/15 02:14:27;;;;;;;1.80;0.30;;;10.40;14.90;;;;;;5030762;28;20072;-79
2022/07/15 02:16:53;;;;;;;1.85;0.45;;;10.30;10.10;;;;;;5027495;28;20033;-80
2022/07/15 02:19:18;;;;;;;2.38;0.32;;;10.20;15.20;;;;;;5033020;28;20049;-81
2022/07/15 02:21:44;;;;;;;2.78;0.57;;;10.10;19.50;;;;;;5024861;28;20033;-80
2022/07/15 02:24:10;;;;;;;3.15;0.50;;;10.10;27.00;;;;;;5013852;28;20480;-80
2022/07/15 02:26:35;;;;;;;3.50;0.60;;;9.90;28.40;;;;;;5031232;28;20025;-79
2022/07/15 02:29:01;;;;;;;0.88;0.35;;;9.90;31.70;;;;;;5024465;28;20025;-80
2022/07/15 02:31:27;;;;;;;2.05;0.40;;;9.80;38.30;;;;;;5029265;28;20032;-79
2022/07/15 02:33:53;;;;;;;4.47;0.40;;;9.70;38.60;;;;;;5033541;28;20022;-79
2022/07/15 02:36:18;;;;;;;2.47;0.47;;;9.60;40.90;;;;;;5019769;28;20571;-79
2022/07/15 02:38:45;;;;;;;4.78;0.50;;;9.60;43.50;;;;;;5027569;28;20561;-80
2022/07/15 02:41:14;;;;;;;1.42;0.22;;;9.50;51.40;;;;;;5023556;28;20068;-80
2022/07/15 02:43:41;;;;;;;4.65;0.75;;;9.50;55.90;;;;;;5019442;28;20022;-79
2022/07/15 02:46:09;;;;;;;1.35;0.30;;;9.50;56.10;;;;;;5024071;28;20025;-80
2022/07/15 02:48:34;;;;;;;1.05;0.28;;;9.50;60.40;;;;;;5027590;28;20035;-79
2022/07/15 02:51:01;;;;;;;1.05;0.20;;;9.40;49.80;;;;;;5013591;28;20537;-80
2022/07/15 02:53:28;;;;;;;1.33;0.40;;;9.40;52.80;;;;;;5027773;28;20049;-80
2022/07/15 02:55:58;;;;;;;2.92;0.85;;;9.30;61.80;;;;;;5026956;28;20386;-80
2022/07/15 02:58:25;;;;;;;2.10;0.50;;;9.30;61.40;;;;;;5027248;28;20029;-80
2022/07/15 03:00:51;;;;;;;2.45;0.88;;;9.20;66.50;;;;;;5019696;28;20424;-79
2022/07/15 03:03:17;;;;;;;3.40;0.47;;;9.20;66.70;;;;;;5033236;28;20026;-79
2022/07/15 03:05:42;;;;;;;2.38;0.40;;;9.20;61.10;;;;;;5029917;28;20037;-79
2022/07/15 03:08:08;;;;;;;1.30;0.40;;;9.10;59.80;;;;;;5022592;28;20026;-80
2022/07/15 03:10:33;;;;;;;0.52;0.30;;;9.10;68.70;;;;;;5031526;28;20033;-80
2022/07/15 03:12:59;;;;;;;2.30;0.40;;;9.00;58.60;;;;;;5020420;28;20075;-79
2022/07/15 03:15:25;;;;;;;1.77;0.40;;;9.00;60.30;;;;;;5032831;28;20075;-80
2022/07/15 03:17:51;;;;;;;1.65;0.20;;;9.00;63.10;;;;;;5019020;28;20029;-80
2022/07/15 03:20:16;;;;;;;1.15;0.30;;;8.90;61.20;;;;;;5023263;28;20022;-80
2022/07/15 03:22:42;;;;;;;1.75;0.40;;;8.90;65.30;;;;;;5033803;28;20159;-80
2022/07/15 03:25:08;;;;;;;3.35;0.35;;;9.00;68.20;;;;;;5022594;28;20029;-79
2022/07/15 03:27:33;;;;;;;2.65;0.50;;;8.90;73.50;;;;;;5036747;28;20030;-78
2022/07/15 03:29:59;;;;;;;2.25;0.30;;;8.90;64.10;;;;;;5022744;28;20022;-79
2022/07/15 03:32:25;;;;;;;2.80;0.63;;;8.80;66.80;;;;;;5027418;28;20049;-79
2022/07/15 03:34:51;;;;;;;0.90;0.30;;;8.90;79.00;;;;;;5032019;28;20022;-79
2022/07/15 03:37:17;;;;;;;4.07;0.60;;;8.90;83.30;;;;;;5036637;28;20096;-79
2022/07/15 03:39:42;;;;;;;1.15;0.30;;;8.90;84.40;;;;;;5022733;28;20046;-79
2022/07/15 03:42:08;;;;;;;6.05;0.40;;;8.80;70.70;;;;;;5035775;28;20025;-79
2022/07/15 03:44:34;;;;;;;0.98;0.30;;;8.80;63.70;;;;;;5024085;28;20030;-78
2022/07/15 03:47:00;;;;;;;1.27;0.43;;;8.90;75.40;;;;;;5016669;28;20022;-79
2022/07/15 03:49:26;;;;;;;1.75;0.45;;;8.90;73.50;;;;;;5016558;28;20018;-79
2022/07/15 03:51:51;;;;;;;1.00;0.50;;;8.90;65.90;;;;;;5016297;28;20041;-79
2022/07/15 03:54:17;;;;;;;1.45;0.47;;;8.90;72.00;;;;;;5016593;28;20473;-79
2022/07/15 03:56:47;;;;;;;1.48;0.45;;;8.90;76.00;;;;;;5032707;28;20025;-78
2022/07/15 03:59:13;;;;;;;1.45;0.40;;;8.90;73.50;;;;;;5027578;28;20021;-78
2022/07/15 04:01:39;;;;;;;1.45;0.65;;;8.90;62.40;;;;;;5031345;28;20080;-78
2022/07/15 04:04:04;;;;;;;1.17;0.50;;;9.00;45.30;;;;;;5036055;28;20029;-78
2022/07/15 04:06:30;;;;;;;1.00;0.30;;;9.00;61.80;;;;;;5023092;28;20076;-78
2022/07/15 04:08:55;;;;;;;0.40;0.40;;;9.00;59.60;;;;;;5015970;28;20033;-79
2022/07/15 04:11:21;;;;;;;2.38;0.60;;;9.10;78.90;;;;;;5015776;28;20365;-79
2022/07/15 04:13:47;;;;;;;0.50;0.38;;;9.20;78.20;;;;;;5016781;28;20041;-79
2022/07/15 04:16:12;;;;;;;1.05;0.50;;;9.20;66.50;;;;;;5016087;28;20021;-79
2022/07/15 04:18:38;;;;;;;1.48;0.60;;;9.20;83.10;;;;;;5014761;28;20040;-78
2022/07/15 04:21:04;;;;;;;1.85;0.80;;;9.40;83.60;;;;;;5016814;28;20030;-79
2022/07/15 04:23:29;;;;;;;4.97;0.75;;;10.00;84.40;;;;;;5015925;28;20084;-79
2022/07/15 04:25:55;;;;;;;2.53;0.60;;;12.50;4.80;;;;;;5016010;28;20033;-78
2022/07/15 04:28:21;;;;;;;1.90;0.70;;;14.30;1.00;;;;;;5026881;28;20030;-77
2022/07/15 04:30:47;;;;;;;3.00;0.52;;;15.40;1.00;;;;;;5015636;28;20116;-78
2022/07/15 04:33:13;;;;;;;0.68;0.43;;;16.50;99.90;;;;;;5014278;28;20478;-77
2022/07/15 04:35:39;;;;;;;1.25;0.40;;;17.00;99.90;;;;;;5014894;28;20029;-78
2022/07/15 04:38:05;;;;;;;1.75;0.30;;;14.70;99.90;;;;;;5014881;28;20544;-78
2022/07/15 04:40:32;;;;;;;0.32;0.30;;;13.50;1.00;;;;;;5014598;28;20050;-78
2022/07/15 04:42:58;;;;;;;1.92;0.65;;;12.90;1.00;;;;;;5015045;28;20049;-78
2022/07/15 04:45:28;;;;;;;1.52;0.40;;;12.70;1.00;;;;;;5015255;28;20061;-78
2022/07/15 04:47:54;;;;;;;1.07;0.50;;;12.70;1.00;;;;;;5014778;28;20065;-78
2022/07/15 04:53:05;;;;;;;2.25;0.50;;;12.60;1.00;;;;;;4995591;28;20077;-78
2022/07/15 04:55:31;;;;;;;1.58;0.55;;;12.50;1.00;;;;;;5012302;28;20477;-78
2022/07/15 04:57:56;;;;;;;1.83;0.40;;;12.60;1.00;;;;;;5033758;28;20033;-78
2022/07/15 05:00:22;;;;;;;0.40;0.38;;;12.70;1.00;;;;;;5021509;28;20108;-78
2022/07/15 05:02:48;;;;;;;1.00;0.47;;;12.90;1.00;;;;;;5021752;28;20486;-77
2022/07/15 05:05:15;;;;;;;2.80;0.50;;;13.00;1.00;;;;;;5028907;28;20030;-78
2022/07/15 05:07:40;;;;;;;1.48;0.43;;;13.50;1.00;;;;;;5004154;28;20416;-77
2022/07/15 05:10:07;;;;;;;1.65;0.57;;;14.60;1.00;;;;;;5016073;28;20029;-77
2022/07/15 05:12:33;;;;;;;1.30;0.50;;;14.60;1.00;;;;;;5033988;28;20069;-78
2022/07/15 05:14:59;;;;;;;1.60;0.35;;;15.00;1.00;;;;;;5019851;28;20466;-77
2022/07/15 05:17:25;;;;;;;2.78;0.60;;;15.10;1.00;;;;;;5033920;28;20033;-78
2022/07/15 05:19:52;;;;;;;3.35;0.60;;;15.50;99.90;;;;;;5021254;28;20469;-78
2022/07/15 05:22:18;;;;;;;2.75;0.60;;;15.80;99.90;;;;;;5033339;28;20013;-77
2022/07/15 05:24:44;;;;;;;0.30;0.30;;;17.00;99.90;;;;;;5033659;28;20030;-78
2022/07/15 05:27:10;;;;;;;1.02;0.60;;;16.70;99.90;;;;;;5033772;28;20023;-77
2022/07/15 05:29:35;;;;;;;1.33;0.32;;;17.30;99.90;;;;;;5033510;28;20109;-77
2022/07/15 05:32:01;;;;;;;1.60;0.40;;;19.90;99.90;;;;;;5033591;28;20021;-77
2022/07/15 05:34:26;;;;;;;1.92;0.50;;;19.80;99.90;;;;;;5033162;28;20370;-76
2022/07/15 05:36:52;;;;;;;1.80;0.40;;;19.40;99.90;;;;;;5033251;28;20393;-76
2022/07/15 05:39:18;;;;;;;1.30;0.40;;;19.10;99.90;;;;;;5033043;28;20034;-77
2022/07/15 05:41:43;;;;;;;1.42;0.35;;;18.60;99.90;;;;;;5033102;28;20107;-77
2022/07/15 05:44:09;;;;;;;2.10;0.40;;;18.50;99.90;;;;;;5033052;28;20022;-76
2022/07/15 05:46:34;;;;;;;1.50;0.25;;;18.70;99.90;;;;;;5032982;28;20075;-76
2022/07/15 05:49:00;;;;;;;2.00;0.55;;;18.90;99.90;;;;;;5033081;28;21516;-76
2022/07/15 05:51:26;;;;;;;4.90;0.38;;;18.80;99.90;;;;;;5033093;28;20048;-77
2022/07/15 05:53:51;;;;;;;1.00;0.40;;;18.70;99.90;;;;;;5033018;28;20532;-77
2022/07/15 05:56:17;;;;;;;1.08;0.40;;;18.80;99.90;;;;;;5032899;28;20025;-76
2022/07/15 05:58:42;;;;;;;1.40;0.38;;;18.70;99.90;;;;;;5025950;28;20477;-77
2022/07/15 06:01:09;;;;;;;1.17;0.40;;;18.80;99.90;;;;;;5013450;28;20377;-76
2022/07/15 06:03:35;;;;;;;4.88;0.32;;;19.50;99.90;;;;;;4999869;28;20103;-77
2022/07/15 06:06:03;;;;;;;2.10;0.30;;;20.00;99.90;;;;;;5015994;28;20103;-77
2022/07/15 06:08:29;;;;;;;1.85;0.30;;;19.90;99.90;;;;;;5015662;28;20089;-77
2022/07/15 06:10:54;;;;;;;2.75;0.35;;;20.10;99.90;;;;;;5033877;28;20060;-77
2022/07/15 06:13:20;;;;;;;1.35;0.20;;;20.10;99.90;;;;;;5027241;28;20454;-77
2022/07/15 06:15:46;;;;;;;1.10;0.20;;;20.70;99.90;;;;;;5026702;28;20500;-77
2022/07/15 06:18:12;;;;;;;0.60;0.20;;;21.00;99.90;;;;;;5032225;28;20033;-76
2022/07/15 06:20:37;;;;;;;2.35;0.30;;;21.30;99.90;;;;;;5030139;28;20026;-77
2022/07/15 06:23:03;;;;;;;0.30;0.10;;;21.70;99.90;;;;;;5012445;28;20026;-77
2022/07/15 06:25:29;;;;;;;1.92;0.30;;;21.70;99.90;;;;;;5031629;28;20036;-77
2022/07/15 06:27:54;;;;;;;1.20;0.40;;;21.30;99.90;;;;;;5032401;28;20040;-77
2022/07/15 06:30:20;;;;;;;3.00;0.30;;;22.70;99.90;;;;;;5032397;28;20018;-77
2022/07/15 06:32:45;;;;;;;2.08;0.25;;;25.10;99.90;;;;;;5032549;28;20025;-77
2022/07/15 06:35:11;;;;;;;1.05;0.25;;;27.00;99.90;;;;;;5032056;28;20030;-77
2022/07/15 06:37:37;;;;;;;0.80;0.30;;;31.10;99.90;;;;;;5032546;28;20036;-77
2022/07/15 06:40:03;;;;;;;0.75;0.28;;;33.90;99.90;;;;;;5032411;28;20056;-77
2022/07/15 06:42:29;;;;;;;1.98;0.30;;;33.40;99.90;;;;;;5032680;28;20029;-77
2022/07/15 06:44:55;;;;;;;3.35;0.40;;;35.50;99.90;;;;;;5026814;28;20084;-77
2022/07/15 06:47:20;;;;;;;1.45;0.30;;;36.10;99.90;;;;;;5012841;28;20026;-77
2022/07/15 06:49:46;;;;;;;3.05;0.30;;;34.70;99.90;;;;;;5012959;28;20018;-77
2022/07/15 06:52:12;;;;;;;4.40;0.40;;;32.70;99.90;;;;;;5012830;28;20110;-77
2022/07/15 06:54:37;;;;;;;3.83;0.28;;;34.60;99.90;;;;;;5013117;28;20026;-78
2022/07/15 06:57:03;;;;;;;1.52;0.20;;;33.60;99.90;;;;;;5023989;28;20029;-76
2022/07/15 06:59:29;;;;;;;1.45;0.30;;;30.60;99.90;;;;;;5036500;28;20064;-77
2022/07/15 07:01:55;;;;;;;0.98;0.20;;;28.10;99.90;;;;;;5036452;28;20021;-76
2022/07/15 07:04:22;;;;;;;0.75;0.30;;;27.00;99.90;;;;;;5025261;28;20066;-77
2022/07/15 07:06:47;;;;;;;1.27;0.20;;;26.30;99.90;;;;;;5030666;28;20029;-76
2022/07/15 07:09:19;;;;;;;1.75;0.30;;;26.00;99.90;;;;;;5016416;28;20413;-76
2022/07/15 07:11:45;;;;;;;2.70;0.40;;;27.70;99.90;;;;;;5032643;28;20492;-77
2022/07/15 07:14:11;;;;;;;1.55;0.20;;;27.00;99.90;;;;;;5036190;28;20041;-77
2022/07/15 07:16:36;;;;;;;4.35;0.50;;;26.90;99.90;;;;;;5036034;28;20389;-77
2022/07/15 07:19:02;;;;;;;0.90;0.20;;;30.40;99.90;;;;;;5026465;28;20061;-77
2022/07/15 07:21:27;;;;;;;2.38;0.20;;;31.10;99.90;;;;;;5016198;28;20026;-77
2022/07/15 07:23:53;;;;;;;1.42;0.32;;;28.60;99.90;;;;;;5025135;28;20481;-77
2022/07/15 07:26:19;;;;;;;0.60;0.30;;;28.20;99.90;;;;;;5021397;28;20037;-76
2022/07/15 07:28:46;;;;;;;2.88;0.40;;;33.20;99.90;;;;;;5030355;28;20064;-76
2022/07/15 07:31:13;;;;;;;1.17;0.28;;;33.00;99.90;;;;;;5002318;28;20398;-76
2022/07/15 07:33:39;;;;;;;2.70;0.30;;;30.60;99.90;;;;;;5028077;28;20061;-76
2022/07/15 07:36:06;;;;;;;0.40;0.10;;;31.70;99.90;;;;;;5021576;28;20021;-76
2022/07/15 07:38:33;;;;;;;1.05;0.20;;;31.20;99.90;;;;;;5025774;28;20030;-77
2022/07/15 07:40:58;;;;;;;0.98;0.20;;;30.00;99.90;;;;;;5029490;28;20112;-77
2022/07/15 07:43:24;;;;;;;0.35;0.22;;;31.60;99.90;;;;;;5023831;28;20574;-77
2022/07/15 07:45:50;;;;;;;1.20;0.22;;;36.30;99.90;;;;;;5021625;28;20018;-77
2022/07/15 07:48:16;;;;;;;1.20;0.30;;;37.70;99.90;;;;;;5029541;28;20017;-77
2022/07/15 07:50:43;;;;;;;2.25;0.32;;;38.60;99.90;;;;;;5028328;28;20045;-77
2022/07/15 07:53:10;;;;;;;2.40;0.40;;;34.80;99.90;;;;;;5021184;28;20448;-77
2022/07/15 07:55:36;;;;;;;1.90;0.30;;;32.70;99.90;;;;;;5025374;28;20030;-77
2022/07/15 07:58:02;;;;;;;0.40;0.20;;;29.80;99.90;;;;;;5017750;28;20038;-77
2022/07/15 08:00:29;;;;;;;1.42;0.25;;;29.20;99.90;;;;;;5027499;28;20104;-77
2022/07/15 08:02:57;;;;;;;1.50;0.30;;;28.50;99.90;;;;;;5030686;28;20052;-76
2022/07/15 08:05:23;;;;;;;1.42;0.22;;;27.90;99.90;;;;;;5015738;28;20065;-77
2022/07/15 08:07:49;;;;;;;1.45;0.20;;;32.30;99.90;;;;;;5028249;28;20025;-77
2022/07/15 08:10:16;;;;;;;1.00;0.50;;;33.80;99.90;;;;;;5021533;28;20032;-77
2022/07/15 08:12:42;;;;;;;1.58;0.43;;;32.60;99.90;;;;;;5024845;28;20018;-77
2022/07/15 08:15:12;;;;;;;2.08;0.40;;;33.00;99.90;;;;;;5018295;28;20051;-77
2022/07/15 08:17:38;;;;;;;0.32;0.20;;;38.50;99.90;;;;;;5025968;28;20025;-77
2022/07/15 08:20:09;;;;;;;0.80;0.22;;;41.10;99.90;;;;;;5029309;28;20030;-77
2022/07/15 08:22:35;;;;;;;1.67;0.20;;;39.40;99.90;;;;;;5023377;28;20030;-77
2022/07/15 08:25:01;;;;;;;0.40;0.20;;;35.90;99.90;;;;;;5021417;28;20121;-77
2022/07/15 08:27:27;;;;;;;1.25;0.20;;;32.40;99.90;;;;;;5030104;28;20516;-77
2022/07/15 08:29:53;;;;;;;1.25;0.20;;;32.50;99.90;;;;;;5026589;28;20026;-77
2022/07/15 08:32:19;;;;;;;1.40;0.20;;;33.80;99.90;;;;;;5032430;28;20092;-78
2022/07/15 08:34:47;;;;;;;0.47;0.10;;;32.40;99.90;;;;;;5030275;28;20117;-77
2022/07/15 08:37:13;;;;;;;0.65;0.28;;;30.80;99.90;;;;;;5018165;28;20038;-78
2022/07/15 08:39:38;;;;;;;1.25;0.22;;;30.40;99.90;;;;;;5034368;28;20025;-78
2022/07/15 08:42:05;;;;;;;1.92;0.20;;;31.20;99.90;;;;;;5035001;28;20037;-78
2022/07/15 08:44:31;;;;;;;0.32;0.20;;;33.30;99.90;;;;;;5035024;28;20030;-77
2022/07/15 08:47:02;;;;;;;1.50;0.30;;;34.00;99.90;;;;;;5034925;28;20029;-78
2022/07/15 08:49:30;;;;;;;1.40;0.20;;;34.00;99.90;;;;;;5034810;28;20036;-77
2022/07/15 08:51:58;;;;;;;0.80;0.20;;;35.30;99.90;;;;;;5034690;28;20026;-78
2022/07/15 08:54:24;;;;;;;2.58;0.32;;;37.80;99.90;;;;;;5034759;28;20029;-78
2022/07/15 08:56:50;;;;;;;3.03;0.28;;;34.50;99.90;;;;;;5034689;28;20036;-78
2022/07/15 08:59:17;;;;;;;1.48;0.17;;;36.10;99.90;;;;;;5019881;28;20030;-79
2022/07/15 09:01:45;;;;;;;1.20;0.38;;;36.50;99.90;;;;;;4994941;28;20018;-77
2022/07/15 09:04:12;;;;;;;0.65;0.20;;;36.90;99.90;;;;;;4995118;28;20068;-77
2022/07/15 09:06:48;;;;;;;0.63;0.20;;;34.80;99.90;;;;;;4994994;28;20058;-78
2022/07/15 09:09:26;;;;;;;1.48;0.28;;;38.00;99.90;;;;;;4995006;28;20026;-77
2022/07/15 09:11:57;;;;;;;0.80;0.10;;;38.70;99.90;;;;;;4994915;28;20494;-77
2022/07/15 09:14:28;;;;;;;0.45;0.40;;;38.30;99.90;;;;;;4995020;28;20018;-79
2022/07/15 09:17:07;;;;;;;1.42;0.20;;;38.80;99.90;;;;;;5001571;28;20538;-78
2022/07/15 09:20:05;;;;;;;0.73;0.15;;;40.70;99.90;;;;;;5022852;28;20022;-78
2022/07/15 09:22:33;;;;;;;0.95;0.20;;;38.90;99.90;;;;;;5009967;28;20017;-77
2022/07/15 09:25:08;;;;;;;0.55;0.40;;;34.40;99.90;;;;;;5034071;28;20029;-77
2022/07/15 09:27:40;;;;;;;1.90;0.40;;;37.60;99.90;;;;;;5006591;28;20637;-77
2022/07/15 09:33:39;;;;;;;0.50;0.20;;;42.00;99.90;;;;;;4990740;28;20053;-77
2022/07/15 09:36:18;;;;;;;0.47;0.20;;;40.40;99.90;;;;;;5002734;28;20462;-77
2022/07/15 09:38:52;;;;;;;1.52;0.25;;;36.30;99.90;;;;;;5028122;28;20358;-78
2022/07/15 09:41:40;;;;;;;0.60;0.20;;;36.10;99.90;;;;;;5013389;28;20046;-78
2022/07/15 09:44:11;;;;;;;1.10;0.20;;;33.50;99.90;;;;;;5005260;28;20101;-77
2022/07/15 09:46:41;;;;;;;1.35;0.30;;;34.40;99.90;;;;;;5013904;28;20450;-77
2022/07/15 09:49:07;;;;;;;;;;;36.10;99.90;;;;;;5013812;28;20025;-77
2022/07/15 09:51:54;;;;;;;1.15;0.30;;;35.70;99.90;;;;;;5013786;28;19905;-77
2022/07/15 09:54:21;;;;;;;1.58;0.20;;;35.90;99.90;;;;;;5013950;28;20018;-77
2022/07/15 09:56:47;;;;;;;1.40;0.30;;;33.90;99.90;;;;;;5013470;28;20100;-77
2022/07/15 09:59:15;;;;;;;1.27;0.20;;;35.40;99.90;;;;;;5013555;28;20026;-77
2022/07/15 10:01:41;;;;;;;2.30;0.30;;;34.40;99.90;;;;;;5013473;28;20051;-77
2022/07/15 10:04:08;;;;;;;0.38;0.20;;;34.20;99.90;;;;;;5016122;28;20022;-77
2022/07/15 10:06:37;;;;;;;1.05;0.38;;;34.10;99.90;;;;;;5032857;28;20025;-78
2022/07/15 10:09:04;;;;;;;2.80;0.50;;;34.00;99.90;;;;;;5033139;28;20083;-77
2022/07/15 10:11:32;;;;;;;1.45;0.20;;;33.60;99.90;;;;;;5033221;28;20649;-77
2022/07/15 10:14:35;;;;;;;0.60;0.25;;;34.10;99.90;;;;;;5032934;28;20021;-77
2022/07/15 10:17:04;;;;;;;0.93;0.30;;;33.00;99.90;;;;;;4993203;28;20117;-77
2022/07/15 10:19:48;;;;;;;1.10;0.40;;;32.60;99.90;;;;;;5009481;28;20044;-78
2022/07/15 10:22:40;;;;;;;1.35;0.30;;;31.00;99.90;;;;;;4993225;28;20110;-78
2022/07/15 10:25:20;;;;;;;1.15;0.40;;;28.70;99.90;;;;;;4993968;28;20026;-77
2022/07/15 10:28:00;;;;;;;0.55;0.20;;;28.50;99.90;;;;;;5008445;28;20029;-77
2022/07/15 10:30:26;;;;;;;1.00;0.32;;;28.00;99.90;;;;;;5017684;28;20108;-77
2022/07/15 10:33:04;;;;;;;0.25;0.25;;;26.90;99.90;;;;;;5024780;28;20116;-77
2022/07/15 10:35:48;;;;;;;3.60;0.70;;;27.10;99.90;;;;;;5023711;28;20033;-77
2022/07/15 10:38:20;;;;;;;2.70;0.40;;;26.60;99.90;;;;;;5032341;28;20030;-77
2022/07/15 10:40:59;;;;;;;1.35;0.43;;;26.00;99.90;;;;;;4992723;28;20054;-76
2022/07/15 10:43:51;;;;;;;1.80;0.37;;;26.10;99.90;;;;;;4993018;28;20037;-76
2022/07/15 10:46:16;;;;;;;2.45;0.50;;;26.50;99.90;;;;;;4993115;28;20104;-76
2022/07/15 10:48:58;;;;;;;1.65;0.43;;;27.70;99.90;;;;;;4993030;28;20061;-75
2022/07/15 10:51:45;;;;;;;1.42;0.50;;;30.50;99.90;;;;;;4993059;28;20077;-76
2022/07/15 10:54:33;;;;;;;1.38;0.50;;;32.40;99.90;;;;;;4992719;28;20057;-76
2022/07/15 10:57:00;;;;;;;1.75;0.47;;;33.10;99.90;;;;;;4992764;28;20038;-76
2022/07/15 10:59:26;;;;;;;1.52;0.45;;;29.90;99.90;;;;;;4995505;28;20026;-76
2022/07/15 11:02:00;;;;;;;2.30;0.43;;;29.80;99.90;;;;;;5012669;28;20068;-76
2022/07/15 11:04:31;;;;;;;1.15;0.50;;;28.40;99.90;;;;;;5012406;28;20144;-76
2022/07/15 11:07:04;;;;;;;4.68;0.95;;;26.60;99.90;;;;;;5012526;28;20117;-76
2022/07/15 11:10:06;;;;;;;0.65;0.40;;;29.60;99.90;;;;;;5012625;28;20045;-76
2022/07/15 11:12:32;;;;;;;2.33;0.65;;;32.80;99.90;;;;;;5012510;28;20029;-76
2022/07/15 11:14:58;;;;;;;1.60;0.38;;;33.50;99.90;;;;;;5012152;28;20025;-75
2022/07/15 11:17:27;;;;;;;1.52;0.40;;;32.00;99.90;;;;;;5012416;28;20034;-77
2022/07/15 11:19:55;;;;;;;1.45;0.30;;;31.40;99.90;;;;;;5012248;28;20030;-77
2022/07/15 11:22:24;;;;;;;1.55;0.50;;;29.90;99.90;;;;;;5012359;28;20104;-77
2022/07/15 11:24:49;;;;;;;1.55;0.50;;;30.60;99.90;;;;;;5013578;28;20018;-76
2022/07/15 11:27:15;;;;;;;0.93;0.50;;;30.00;99.90;;;;;;5018141;28;20021;-77
2022/07/15 11:29:46;;;;;;;2.55;0.47;;;29.30;99.90;;;;;;5022437;28;20474;-77
2022/07/15 11:32:14;;;;;;;0.82;0.40;;;28.40;99.90;;;;;;5026071;28;20026;-77
2022/07/15 11:34:45;;;;;;;2.33;0.75;;;27.30;99.90;;;;;;5020657;28;20036;-77
2022/07/15 11:37:12;;;;;;;2.67;0.60;;;26.80;99.90;;;;;;5017844;28;20018;-77
2022/07/15 11:39:38;;;;;;;1.88;0.40;;;26.60;99.90;;;;;;5023975;28;20018;-77
2022/07/15 11:44:50;;;;;;;2.45;0.80;;;25.80;99.90;;;;;;5012592;28;20040;-77
2022/07/15 11:47:16;;;;;;;2.90;0.70;;;26.60;99.90;;;;;;5021362;28;20405;-77
2022/07/15 11:49:43;;;;;;;1.45;0.60;;;27.80;99.90;;;;;;5021936;28;20104;-77
2022/07/15 11:52:12;;;;;;;2.33;1.00;;;28.40;99.90;;;;;;5023420;28;20025;-77
2022/07/15 11:54:39;;;;;;;1.38;0.60;;;27.80;99.90;;;;;;5029571;28;20093;-77
2022/07/15 11:57:10;;;;;;;3.38;0.80;;;27.50;99.90;;;;;;5026588;28;20071;-77
2022/07/15 11:59:37;;;;;;;2.30;0.68;;;27.60;99.90;;;;;;5029085;28;20037;-77
2022/07/15 12:02:08;;;;;;;1.13;0.60;;;28.00;99.90;;;;;;5015404;28;20025;-77
2022/07/15 12:04:35;;;;;;;2.25;0.80;;;28.00;99.90;;;;;;5015690;28;20029;-78
2022/07/15 12:07:01;;;;;;;2.03;0.80;;;28.00;99.90;;;;;;5015389;28;20029;-78
2022/07/15 12:09:37;;;;;;;0.90;0.55;;;27.60;99.90;;;;;;5015282;28;20086;-78
2022/07/15 12:12:03;;;;;;;1.98;0.90;;;28.10;99.90;;;;;;5015238;28;20025;-77
2022/07/15 12:14:29;;;;;;;1.05;0.90;;;27.90;99.90;;;;;;5014785;28;20044;-78
2022/07/15 12:16:55;;;;;;;2.75;0.80;;;27.00;99.90;;;;;;5015021;28;20030;-77
2022/07/15 12:19:30;;;;;;;2.60;0.82;;;26.70;99.90;;;;;;5015298;28;20421;-78
2022/07/15 12:21:58;;;;;;;1.65;0.90;;;27.10;99.90;;;;;;5015227;28;20028;-78
2022/07/15 12:24:40;;;;;;;2.35;0.80;;;26.70;99.90;;;;;;5015175;28;20030;-78
2022/07/15 12:27:06;;;;;;;3.38;0.95;;;27.10;99.90;;;;;;5013937;28;20026;-77
2022/07/15 12:29:33;;;;;;;1.73;0.90;;;27.20;99.90;;;;;;5026542;28;20022;-78
2022/07/15 12:32:12;;;;;;;2.83;0.85;;;27.70;99.90;;;;;;5028803;28;20028;-78
2022/07/15 12:34:47;;;;;;;2.83;0.65;;;26.90;99.90;;;;;;5023169;28;20389;-77
2022/07/15 12:37:14;;;;;;;2.35;0.80;;;27.30;99.90;;;;;;5020473;28;20117;-78
2022/07/15 12:40:03;;;;;;;2.30;0.70;;;27.80;99.90;;;;;;5027067;28;20033;-77
2022/07/15 12:42:38;;;;;;;2.30;0.70;;;27.80;99.90;;;;;;5028316;28;20061;-78
2022/07/15 12:45:16;;;;;;;2.08;0.80;;;28.30;99.90;;;;;;5024734;28;20109;-78
2022/07/15 12:48:04;;;;;;;1.23;0.70;;;28.00;99.90;;;;;;5020511;28;20076;-78
2022/07/15 12:50:50;;;;;;;2.90;0.60;;;28.30;99.90;;;;;;5021504;28;20053;-77
2022/07/15 12:53:16;;;;;;;1.60;0.70;;;28.30;99.90;;;;;;5001703;28;20034;-77
2022/07/15 12:55:45;;;;;;;2.42;0.60;;;28.00;99.90;;;;;;5020548;28;20080;-77
2022/07/15 12:58:15;;;;;;;1.65;0.60;;;27.70;99.90;;;;;;5000967;28;20037;-78
2022/07/15 13:00:41;;;;;;;3.15;1.00;;;26.90;99.90;;;;;;5026903;28;20620;-78
2022/07/15 13:03:08;;;;;;;6.45;1.45;;;26.30;99.90;;;;;;5020143;28;20026;-77
2022/07/15 13:05:42;;;;;;;2.20;1.10;;;26.10;99.90;;;;;;5023306;28;20025;-77
2022/07/15 13:08:09;;;;;;;9.85;1.92;;;25.60;99.90;;;;;;5028193;28;20417;-77